Time;durP1;ratioP1;P1;durP2;ratioP2;P2;SDS_P1;SDS_P2;PMS_P1;PMS_P2;Temp;Humidity;BMP_temperature;BMP_pressure;BME280_temperature;BME280_humidity;BME280_pressure;Samples;Min_cycle;Max_cycle;Signal;HPM_P1;HPM_P2
2021/11/20 00:00:21;;;;;;;16.73;12.57;;;11.00;96.70;;;;;;4868806;29;20060;-74
2021/11/20 00:02:49;;;;;;;14.43;9.90;;;11.10;96.70;;;;;;4888656;29;20147;-74
2021/11/20 00:05:22;;;;;;;9.73;8.32;;;11.00;96.70;;;;;;4872035;29;20056;-74
2021/11/20 00:07:51;;;;;;;11.52;8.63;;;11.00;96.70;;;;;;4865143;29;20404;-74
2021/11/20 00:10:23;;;;;;;11.48;7.78;;;10.90;96.70;;;;;;4872213;29;20350;-74
2021/11/20 00:12:52;;;;;;;10.48;7.90;;;10.90;96.70;;;;;;4857493;29;20045;-74
2021/11/20 00:15:23;;;;;;;12.60;8.73;;;10.90;96.70;;;;;;4887201;29;20047;-75
2021/11/20 00:17:51;;;;;;;13.48;9.48;;;10.90;96.70;;;;;;4876292;29;20056;-74
2021/11/20 00:20:20;;;;;;;18.45;11.90;;;10.90;96.70;;;;;;4891789;29;20047;-75
2021/11/20 00:22:51;;;;;;;17.17;11.25;;;10.90;96.70;;;;;;4877075;29;20411;-75
2021/11/20 00:25:23;;;;;;;15.38;10.63;;;10.90;96.70;;;;;;4886068;29;20959;-75
2021/11/20 00:27:57;;;;;;;14.90;10.13;;;10.90;96.70;;;;;;4872178;29;20083;-74
2021/11/20 00:30:39;;;;;;;14.93;9.82;;;10.80;96.70;;;;;;4884678;29;20927;-73
2021/11/20 00:33:10;;;;;;;16.85;10.15;;;10.80;96.70;;;;;;4882998;29;20124;-74
2021/11/20 00:35:41;;;;;;;15.32;10.02;;;10.80;96.70;;;;;;4883748;29;20059;-74
2021/11/20 00:38:12;;;;;;;13.90;10.02;;;10.70;96.70;;;;;;4871495;29;20053;-74
2021/11/20 00:40:43;;;;;;;16.45;9.75;;;10.80;96.70;;;;;;4854945;29;20172;-74
2021/11/20 00:43:12;;;;;;;14.38;9.95;;;10.70;96.70;;;;;;4855976;29;20077;-74
2021/11/20 00:45:41;;;;;;;13.45;9.35;;;10.70;96.70;;;;;;4864922;29;20052;-75
2021/11/20 00:48:10;;;;;;;15.25;9.30;;;10.70;96.70;;;;;;4869270;29;20049;-74
2021/11/20 00:50:40;;;;;;;13.57;9.50;;;10.70;96.70;;;;;;4852349;29;20488;-74
2021/11/20 00:53:13;;;;;;;13.38;9.30;;;10.70;96.70;;;;;;4869195;29;20153;-74
2021/11/20 00:55:41;;;;;;;15.68;10.65;;;10.70;96.70;;;;;;4853978;29;20052;-74
2021/11/20 00:58:10;;;;;;;13.90;10.50;;;10.60;96.70;;;;;;4853092;29;20424;-75
2021/11/20 01:00:41;;;;;;;13.00;9.80;;;10.60;96.70;;;;;;4870372;29;20052;-74
2021/11/20 01:03:11;;;;;;;14.13;9.65;;;10.50;96.70;;;;;;4851750;29;20419;-75
2021/11/20 01:05:39;;;;;;;15.57;10.52;;;10.60;96.70;;;;;;4854233;29;20551;-74
2021/11/20 01:08:09;;;;;;;17.23;9.70;;;10.60;96.70;;;;;;4857818;29;20092;-74
2021/11/20 01:10:42;;;;;;;24.33;10.25;;;10.50;96.70;;;;;;4848709;29;20045;-74
2021/11/20 01:13:13;;;;;;;18.83;10.98;;;10.40;96.70;;;;;;4853735;29;20049;-74
2021/11/20 01:15:45;;;;;;;22.88;11.05;;;10.40;96.70;;;;;;4852478;29;20088;-74
2021/11/20 01:18:14;;;;;;;18.00;9.82;;;10.30;96.70;;;;;;4865533;29;20064;-74
2021/11/20 01:20:45;;;;;;;16.27;9.43;;;10.30;96.70;;;;;;4871779;29;20147;-74
2021/11/20 01:23:14;;;;;;;13.93;9.05;;;10.30;96.70;;;;;;4850285;29;20049;-74
2021/11/20 01:25:49;;;;;;;13.52;8.70;;;10.30;96.70;;;;;;4869288;29;20112;-74
2021/11/20 01:28:29;;;;;;;10.85;7.18;;;10.30;96.70;;;;;;4867212;29;20204;-74
2021/11/20 01:31:07;;;;;;;6.95;5.57;;;10.40;96.70;;;;;;4854366;29;20053;-74
2021/11/20 01:33:42;;;;;;;8.10;6.28;;;10.40;96.70;;;;;;4852893;29;20386;-74
2021/11/20 01:36:12;;;;;;;7.32;5.82;;;10.30;96.70;;;;;;4852824;29;20484;-74
2021/11/20 01:38:45;;;;;;;8.02;5.93;;;10.30;96.70;;;;;;4873321;29;20052;-74
2021/11/20 01:41:28;;;;;;;6.80;5.40;;;10.30;96.70;;;;;;4875782;29;20135;-74
2021/11/20 01:44:31;;;;;;;8.98;5.95;;;10.30;96.70;;;;;;4855570;29;20053;-74
2021/11/20 01:47:03;;;;;;;6.80;5.45;;;10.30;96.70;;;;;;4872714;29;20139;-74
2021/11/20 01:49:36;;;;;;;7.40;5.38;;;10.20;96.70;;;;;;4871988;29;20144;-74
2021/11/20 01:52:12;;;;;;;6.43;5.35;;;10.30;96.70;;;;;;4874273;29;20045;-74
2021/11/20 01:54:48;;;;;;;6.15;4.60;;;10.30;96.70;;;;;;4873871;29;20145;-74
2021/11/20 01:57:43;;;;;;;6.03;4.45;;;10.30;96.70;;;;;;4875483;29;20160;-74
2021/11/20 02:00:18;;;;;;;6.85;5.07;;;10.30;96.70;;;;;;4867221;29;20055;-74
2021/11/20 02:02:54;;;;;;;8.25;5.57;;;10.30;96.70;;;;;;4891915;29;20052;-75
2021/11/20 02:05:37;;;;;;;7.05;5.28;;;10.30;96.70;;;;;;4880293;29;20044;-74
2021/11/20 02:08:23;;;;;;;12.77;5.40;;;10.20;96.70;;;;;;4875084;29;20059;-74
2021/11/20 02:10:57;;;;;;;9.05;5.75;;;10.10;96.70;;;;;;4870149;29;20060;-74
2021/11/20 02:13:30;;;;;;;10.52;6.07;;;10.10;96.70;;;;;;4871072;29;20069;-73
2021/11/20 02:16:03;;;;;;;7.82;5.60;;;10.20;96.70;;;;;;4871314;29;20044;-74
2021/11/20 02:18:34;;;;;;;6.40;5.18;;;10.20;96.70;;;;;;4888190;29;20127;-73
2021/11/20 02:21:08;;;;;;;7.47;5.45;;;10.20;96.70;;;;;;4871071;29;20059;-74
2021/11/20 02:23:42;;;;;;;6.40;4.95;;;10.30;96.70;;;;;;4873645;29;20040;-74
2021/11/20 02:26:10;;;;;;;7.78;5.82;;;10.20;96.70;;;;;;4872249;29;20175;-74
2021/11/20 02:29:02;;;;;;;11.27;6.15;;;10.20;96.70;;;;;;4885319;29;20048;-74
2021/11/20 02:31:52;;;;;;;14.60;6.13;;;10.20;96.70;;;;;;4888822;29;20103;-74
2021/11/20 02:34:32;;;;;;;25.67;7.40;;;10.20;96.70;;;;;;4873682;29;20045;-74
2021/11/20 02:37:02;;;;;;;20.02;8.88;;;10.20;96.70;;;;;;4873265;29;20048;-74
2021/11/20 02:39:37;;;;;;;18.13;7.90;;;10.20;96.70;;;;;;4876575;29;20075;-74
2021/11/20 02:42:12;;;;;;;19.27;8.75;;;10.30;96.70;;;;;;4887026;29;20049;-74
2021/11/20 02:44:45;;;;;;;14.32;9.05;;;10.30;96.70;;;;;;4870422;29;20479;-74
2021/11/20 02:47:22;;;;;;;14.65;8.43;;;10.20;96.70;;;;;;4872754;29;20490;-74
2021/11/20 02:49:52;;;;;;;18.95;9.23;;;10.20;96.70;;;;;;4869332;29;20057;-74
2021/11/20 02:52:22;;;;;;;23.30;8.50;;;10.20;96.70;;;;;;4870248;29;20134;-74
2021/11/20 02:54:53;;;;;;;22.67;9.23;;;10.20;96.70;;;;;;4869778;29;20401;-74
2021/11/20 02:57:36;;;;;;;15.95;8.27;;;10.20;96.70;;;;;;4886047;29;20044;-74
2021/11/20 03:00:10;;;;;;;24.98;9.57;;;10.20;96.70;;;;;;4887788;29;20080;-74
2021/11/20 03:02:44;;;;;;;30.40;10.30;;;10.20;96.70;;;;;;4870671;29;20396;-74
2021/11/20 03:05:14;;;;;;;34.53;8.95;;;10.10;96.70;;;;;;4871451;29;20879;-74
2021/11/20 03:07:42;;;;;;;24.13;9.57;;;10.10;96.70;;;;;;4868915;29;20043;-74
2021/11/20 03:10:11;;;;;;;22.10;8.82;;;10.10;96.70;;;;;;4870316;29;20048;-74
2021/11/20 03:12:40;;;;;;;23.10;9.60;;;10.00;96.70;;;;;;4880622;29;20045;-74
2021/11/20 03:15:09;;;;;;;20.85;9.25;;;10.10;96.70;;;;;;4871014;29;20048;-74
2021/11/20 03:17:47;;;;;;;15.15;9.43;;;10.10;96.70;;;;;;4880651;29;20090;-74
2021/11/20 03:20:19;;;;;;;19.80;9.52;;;10.00;96.70;;;;;;4871024;29;20063;-74
2021/11/20 03:22:50;;;;;;;25.95;9.35;;;10.00;96.70;;;;;;4883596;29;20056;-74
2021/11/20 03:25:19;;;;;;;23.75;10.95;;;10.10;96.70;;;;;;4885140;29;20104;-74
2021/11/20 03:27:50;;;;;;;40.35;8.95;;;10.00;96.70;;;;;;4870498;29;20056;-74
2021/11/20 03:30:20;;;;;;;21.85;9.75;;;9.90;96.70;;;;;;4885696;29;20080;-74
2021/11/20 03:32:51;;;;;;;14.60;9.10;;;9.90;96.70;;;;;;4883747;29;20057;-74
2021/11/20 03:35:22;;;;;;;19.00;9.65;;;10.00;96.70;;;;;;4871224;29;20519;-74
2021/11/20 03:37:55;;;;;;;14.82;9.32;;;10.00;96.70;;;;;;4872943;29;20380;-74
2021/11/20 03:40:28;;;;;;;11.80;8.32;;;10.00;96.70;;;;;;4891549;29;20060;-74
2021/11/20 03:42:56;;;;;;;16.42;8.60;;;10.10;96.70;;;;;;4873749;29;21155;-74
2021/11/20 03:45:28;;;;;;;25.38;9.52;;;10.00;96.70;;;;;;4877755;29;20048;-74
2021/11/20 03:48:00;;;;;;;29.83;9.27;;;10.00;96.70;;;;;;4875509;29;20070;-74
2021/11/20 03:50:30;;;;;;;30.83;9.60;;;10.00;96.70;;;;;;4858013;29;20092;-74
2021/11/20 03:52:58;;;;;;;27.25;9.65;;;9.90;96.70;;;;;;4867521;29;20060;-74
2021/11/20 03:55:29;;;;;;;17.98;8.15;;;9.90;96.70;;;;;;4873345;29;20049;-73
2021/11/20 03:57:58;;;;;;;24.65;8.60;;;9.90;96.70;;;;;;4869769;29;20060;-74
2021/11/20 04:00:30;;;;;;;21.27;7.90;;;9.90;96.70;;;;;;4867180;29;20055;-74
2021/11/20 04:03:01;;;;;;;13.70;8.70;;;9.90;96.70;;;;;;4874313;29;20056;-74
2021/11/20 04:05:32;;;;;;;20.17;7.18;;;9.90;96.70;;;;;;4875758;29;20323;-73
2021/11/20 04:08:02;;;;;;;12.60;7.28;;;9.80;96.70;;;;;;4856414;29;20088;-74
2021/11/20 04:10:48;;;;;;;28.95;7.90;;;9.90;96.70;;;;;;4871058;29;20052;-74
2021/11/20 04:13:17;;;;;;;22.38;7.75;;;9.90;96.70;;;;;;4871738;29;20045;-74
2021/11/20 04:15:47;;;;;;;17.90;8.40;;;10.00;96.70;;;;;;4872801;29;20334;-74
2021/11/20 04:18:17;;;;;;;22.85;7.93;;;9.90;96.70;;;;;;4891188;29;20055;-74
2021/11/20 04:20:47;;;;;;;11.57;7.75;;;9.90;96.70;;;;;;4864507;29;20563;-74
2021/11/20 04:23:16;;;;;;;12.68;7.88;;;9.80;96.70;;;;;;4888224;29;20045;-74
2021/11/20 04:25:45;;;;;;;12.40;8.10;;;9.80;96.70;;;;;;4885189;29;20052;-74
2021/11/20 04:28:15;;;;;;;9.05;7.25;;;9.80;96.70;;;;;;4889025;29;20063;-74
2021/11/20 04:30:49;;;;;;;10.13;7.00;;;9.80;96.70;;;;;;4884475;29;20053;-74
2021/11/20 04:33:19;;;;;;;11.30;7.55;;;9.70;96.70;;;;;;4886059;29;20116;-74
2021/11/20 04:35:47;;;;;;;13.32;7.93;;;9.70;96.70;;;;;;4871564;29;20116;-74
2021/11/20 04:38:18;;;;;;;15.23;7.10;;;9.60;96.70;;;;;;4872399;29;20580;-74
2021/11/20 04:40:47;;;;;;;13.38;7.43;;;9.60;96.70;;;;;;4887863;29;20104;-74
2021/11/20 04:43:15;;;;;;;14.00;7.95;;;9.50;96.70;;;;;;4872513;29;20047;-74
2021/11/20 04:45:44;;;;;;;13.02;7.72;;;9.50;96.70;;;;;;4875778;29;20044;-74
2021/11/20 04:48:12;;;;;;;15.05;7.55;;;9.50;96.70;;;;;;4873822;29;20099;-74
2021/11/20 04:50:51;;;;;;;19.98;8.70;;;9.50;96.70;;;;;;4875930;29;20062;-74
2021/11/20 04:53:21;;;;;;;12.18;7.63;;;9.40;96.70;;;;;;4870292;29;20049;-74
2021/11/20 04:55:52;;;;;;;16.35;8.32;;;9.40;96.70;;;;;;4874109;29;20079;-74
2021/11/20 04:58:21;;;;;;;15.07;7.90;;;9.40;96.70;;;;;;4873527;29;20143;-74
2021/11/20 05:00:53;;;;;;;15.60;6.65;;;9.40;96.70;;;;;;4871030;29;20044;-74
2021/11/20 05:03:28;;;;;;;16.35;8.00;;;9.50;96.70;;;;;;4856330;29;20052;-75
2021/11/20 05:05:58;;;;;;;21.63;7.20;;;9.60;96.70;;;;;;4871613;29;20432;-74
2021/11/20 05:08:28;;;;;;;18.27;7.28;;;9.60;96.70;;;;;;4889044;29;20052;-74
2021/11/20 05:11:05;;;;;;;19.65;8.23;;;9.50;96.70;;;;;;4874708;29;20056;-74
2021/11/20 05:13:54;;;;;;;14.15;7.07;;;9.40;96.70;;;;;;4860206;29;20051;-74
2021/11/20 05:16:23;;;;;;;17.55;7.13;;;9.40;96.70;;;;;;4870588;29;20049;-74
2021/11/20 05:18:52;;;;;;;15.13;7.10;;;9.60;96.70;;;;;;4889072;29;20049;-74
2021/11/20 05:21:42;;;;;;;15.13;7.53;;;9.60;96.70;;;;;;4872325;29;20052;-74
2021/11/20 05:24:11;;;;;;;23.48;8.73;;;9.60;96.70;;;;;;4873601;29;20474;-74
2021/11/20 05:26:39;;;;;;;18.40;7.55;;;9.60;96.70;;;;;;4872042;29;20435;-74
2021/11/20 05:29:13;;;;;;;22.08;8.10;;;9.60;96.70;;;;;;4873033;29;20052;-74
2021/11/20 05:31:48;;;;;;;17.52;7.60;;;9.60;96.70;;;;;;4886907;29;20515;-74
2021/11/20 05:34:17;;;;;;;14.98;7.53;;;9.50;96.70;;;;;;4870689;29;20044;-74
2021/11/20 05:36:48;;;;;;;14.02;6.57;;;9.50;96.70;;;;;;4870282;29;20052;-74
2021/11/20 05:39:19;;;;;;;21.15;7.20;;;9.50;96.70;;;;;;4867431;29;20414;-74
2021/11/20 05:41:48;;;;;;;13.55;7.40;;;9.60;96.70;;;;;;4877987;29;20056;-74
2021/11/20 05:44:20;;;;;;;15.43;7.85;;;9.50;96.70;;;;;;4856297;29;20548;-74
2021/11/20 05:46:59;;;;;;;16.33;7.55;;;9.40;96.70;;;;;;4888840;29;20580;-74
2021/11/20 05:49:33;;;;;;;12.68;7.90;;;9.40;96.70;;;;;;4872036;29;20071;-74
2021/11/20 05:52:09;;;;;;;12.57;7.20;;;9.30;96.70;;;;;;4870909;29;20503;-74
2021/11/20 05:54:38;;;;;;;21.33;7.47;;;9.20;96.70;;;;;;4876063;29;20537;-75
2021/11/20 05:57:15;;;;;;;15.35;7.40;;;9.30;96.70;;;;;;4871761;29;20049;-74
2021/11/20 05:59:45;;;;;;;11.13;7.32;;;9.30;96.70;;;;;;4868785;29;20424;-74
2021/11/20 06:02:17;;;;;;;17.02;8.27;;;9.40;96.70;;;;;;4870925;29;20786;-74
2021/11/20 06:04:53;;;;;;;22.30;8.45;;;9.50;96.70;;;;;;4871830;29;20045;-74
2021/11/20 06:07:23;;;;;;;19.52;8.45;;;9.40;96.70;;;;;;4885416;29;20096;-74
2021/11/20 06:09:52;;;;;;;16.20;8.20;;;9.40;96.70;;;;;;4882155;29;20496;-74
2021/11/20 06:12:26;;;;;;;35.92;8.85;;;9.40;96.70;;;;;;4870265;29;20055;-74
2021/11/20 06:14:54;;;;;;;28.83;9.68;;;9.40;96.70;;;;;;4885026;29;20056;-74
2021/11/20 06:17:26;;;;;;;17.65;8.77;;;9.40;96.70;;;;;;4856926;29;20048;-74
2021/11/20 06:19:54;;;;;;;39.75;8.75;;;9.40;96.70;;;;;;4885039;29;20108;-74
2021/11/20 06:22:26;;;;;;;27.80;9.00;;;9.40;96.70;;;;;;4872958;29;20148;-74
2021/11/20 06:24:57;;;;;;;21.75;8.35;;;9.30;96.70;;;;;;4870870;29;20040;-74
2021/11/20 06:27:26;;;;;;;21.38;7.82;;;9.30;96.70;;;;;;4889326;29;20501;-74
2021/11/20 06:30:06;;;;;;;19.98;8.18;;;9.40;96.70;;;;;;4891132;29;20114;-74
2021/11/20 06:32:35;;;;;;;14.93;8.45;;;9.40;96.70;;;;;;4869620;29;20338;-74
2021/11/20 06:35:26;;;;;;;18.92;7.70;;;9.40;96.70;;;;;;4882522;29;20102;-74
2021/11/20 06:38:20;;;;;;;12.63;8.63;;;9.60;96.70;;;;;;4876607;29;20403;-74
2021/11/20 06:40:51;;;;;;;19.20;8.38;;;9.50;96.70;;;;;;4870565;29;20485;-74
2021/11/20 06:43:22;;;;;;;22.13;7.88;;;9.50;96.70;;;;;;4883805;29;20056;-74
2021/11/20 06:45:55;;;;;;;25.60;7.47;;;9.50;96.70;;;;;;4869353;29;20089;-74
2021/11/20 06:48:24;;;;;;;18.65;6.88;;;9.40;96.70;;;;;;4870296;29;20586;-74
2021/11/20 06:51:10;;;;;;;;;;;9.40;96.70;;;;;;4870515;29;20135;-74
2021/11/20 06:53:44;;;;;;;16.33;6.32;;;9.30;96.70;;;;;;4869789;29;20400;-74
2021/11/20 06:56:47;;;;;;;14.35;5.88;;;9.30;96.70;;;;;;4863433;29;20052;-74
2021/11/20 07:02:11;;;;;;;19.67;6.68;;;9.30;96.70;;;;;;4884856;29;20526;-74
2021/11/20 07:04:39;;;;;;;11.05;5.82;;;9.30;96.70;;;;;;4873204;29;20045;-73
2021/11/20 07:07:13;;;;;;;19.77;6.10;;;9.20;96.70;;;;;;4871051;29;20048;-74
2021/11/20 07:09:42;;;;;;;16.13;6.53;;;9.20;96.70;;;;;;4868764;29;20041;-73
2021/11/20 07:12:10;;;;;;;19.50;6.38;;;9.20;96.70;;;;;;4875617;29;20320;-74
2021/11/20 07:14:38;;;;;;;16.83;5.70;;;9.20;96.70;;;;;;4874086;29;20155;-73
2021/11/20 07:17:07;;;;;;;15.90;6.03;;;9.30;96.70;;;;;;4875557;29;20044;-73
2021/11/20 07:19:49;;;;;;;11.13;5.47;;;9.30;96.70;;;;;;4872602;29;20040;-74
2021/11/20 07:22:37;;;;;;;14.93;5.80;;;9.20;96.70;;;;;;4870808;29;20044;-74
2021/11/20 07:25:15;;;;;;;13.30;5.95;;;9.20;96.70;;;;;;4887568;29;20519;-74
2021/11/20 07:27:44;;;;;;;10.40;5.45;;;9.30;96.70;;;;;;4873121;29;20144;-75
2021/11/20 07:30:15;;;;;;;8.63;6.22;;;9.30;96.70;;;;;;4873150;29;20152;-75
2021/11/20 07:32:47;;;;;;;17.73;6.63;;;9.30;96.70;;;;;;4888874;29;20075;-75
2021/11/20 07:35:25;;;;;;;11.00;6.00;;;9.40;96.70;;;;;;4872380;29;20095;-75
2021/11/20 07:37:54;;;;;;;10.02;6.03;;;9.40;96.70;;;;;;4886842;29;20519;-75
2021/11/20 07:40:26;;;;;;;11.15;6.20;;;9.30;96.70;;;;;;4859724;29;20049;-74
2021/11/20 07:42:55;;;;;;;13.95;6.88;;;9.40;96.70;;;;;;4869729;29;20033;-75
2021/11/20 07:45:42;;;;;;;13.73;6.50;;;9.50;96.70;;;;;;4871113;29;20064;-75
2021/11/20 07:48:13;;;;;;;13.45;7.07;;;9.50;96.70;;;;;;4857535;29;20065;-74
2021/11/20 07:50:44;;;;;;;15.60;7.40;;;9.50;96.70;;;;;;4853718;29;20052;-74
2021/11/20 07:53:32;;;;;;;10.07;6.57;;;9.60;96.70;;;;;;4868792;29;20628;-74
2021/11/20 07:56:01;;;;;;;17.42;7.55;;;9.60;96.70;;;;;;4837724;29;20109;-75
2021/11/20 07:58:30;;;;;;;13.10;7.20;;;9.60;96.70;;;;;;4854475;29;20045;-74
2021/11/20 08:01:02;;;;;;;11.30;6.53;;;9.60;96.70;;;;;;4851328;29;20053;-74
2021/11/20 08:03:34;;;;;;;14.70;6.13;;;9.60;96.70;;;;;;4853622;29;20052;-74
2021/11/20 08:06:20;;;;;;;16.75;7.55;;;9.70;96.70;;;;;;4869518;29;20178;-74
2021/11/20 08:09:27;;;;;;;13.00;7.68;;;9.70;96.70;;;;;;4815889;29;20046;-74
2021/11/20 08:12:00;;;;;;;15.38;6.72;;;9.70;96.70;;;;;;4818166;29;20103;-75
2021/11/20 08:14:47;;;;;;;16.02;6.75;;;9.80;96.70;;;;;;4850853;29;20103;-74
2021/11/20 08:17:42;;;;;;;11.10;6.85;;;9.90;96.70;;;;;;4775247;29;20081;-74
2021/11/20 08:20:24;;;;;;;12.85;7.70;;;10.00;96.70;;;;;;4778394;29;20090;-73
2021/11/20 08:23:06;;;;;;;12.65;7.50;;;10.10;96.70;;;;;;4761307;30;20057;-74
2021/11/20 08:25:34;;;;;;;18.90;8.63;;;10.10;96.70;;;;;;4779287;29;20078;-74
2021/11/20 08:28:06;;;;;;;13.32;7.85;;;10.00;96.70;;;;;;4761190;29;20093;-75
2021/11/20 08:30:34;;;;;;;17.20;9.02;;;10.10;96.70;;;;;;4777909;29;20532;-74
2021/11/20 08:33:03;;;;;;;17.95;9.55;;;10.20;96.70;;;;;;4780144;29;20055;-74
2021/11/20 08:35:55;;;;;;;17.55;9.60;;;10.30;96.70;;;;;;4772938;29;20055;-73
2021/11/20 08:38:39;;;;;;;21.75;11.13;;;10.30;96.70;;;;;;4768293;29;20142;-74
2021/11/20 08:41:11;;;;;;;20.48;10.15;;;10.30;96.70;;;;;;4797265;29;20063;-75
2021/11/20 08:43:44;;;;;;;29.33;15.43;;;10.20;96.70;;;;;;4785191;29;20593;-74
2021/11/20 08:46:29;;;;;;;45.53;24.77;;;10.20;96.70;;;;;;4799301;29;20047;-75
2021/11/20 08:48:57;;;;;;;37.30;19.73;;;10.30;96.70;;;;;;4796360;29;20476;-75
2021/11/20 08:51:28;;;;;;;32.45;16.33;;;10.30;96.70;;;;;;4779547;29;20565;-74
2021/11/20 08:54:00;;;;;;;27.10;14.65;;;10.40;96.70;;;;;;4794748;29;20084;-74
2021/11/20 08:56:29;;;;;;;24.48;13.80;;;10.40;96.70;;;;;;4892884;29;20226;-74
2021/11/20 08:59:06;;;;;;;24.80;11.77;;;10.60;96.70;;;;;;4864013;29;20060;-75
2021/11/20 09:01:57;;;;;;;29.27;12.73;;;10.70;96.70;;;;;;4888343;29;20071;-74
2021/11/20 09:04:38;;;;;;;23.55;11.68;;;10.80;96.70;;;;;;4871203;29;20040;-75
2021/11/20 09:07:10;;;;;;;22.17;11.90;;;10.90;96.70;;;;;;4872409;29;20056;-75
2021/11/20 09:09:48;;;;;;;25.00;12.23;;;11.00;96.70;;;;;;4870046;29;20080;-73
2021/11/20 09:12:29;;;;;;;23.85;13.65;;;11.10;96.70;;;;;;4871763;29;20088;-74
2021/11/20 09:15:01;;;;;;;24.25;13.68;;;11.20;96.70;;;;;;4887211;29;20108;-73
2021/11/20 09:17:38;;;;;;;28.25;14.65;;;11.20;96.70;;;;;;4870987;29;20048;-73
2021/11/20 09:20:07;;;;;;;31.70;16.77;;;11.30;96.70;;;;;;4887657;29;20539;-74
2021/11/20 09:22:35;;;;;;;34.42;16.25;;;11.30;96.70;;;;;;4887528;29;20095;-74
2021/11/20 09:25:18;;;;;;;28.45;15.23;;;11.30;96.70;;;;;;4885460;29;20049;-74
2021/11/20 09:28:08;;;;;;;26.98;13.13;;;11.30;96.70;;;;;;4871980;29;20055;-75
2021/11/20 09:30:40;;;;;;;22.15;11.27;;;11.30;96.70;;;;;;4873027;29;20052;-75
2021/11/20 09:33:10;;;;;;;20.88;10.40;;;11.40;96.70;;;;;;4890497;29;20052;-75
2021/11/20 09:35:41;;;;;;;22.33;11.02;;;11.40;96.70;;;;;;4866669;29;20423;-75
2021/11/20 09:38:24;;;;;;;21.00;10.63;;;11.50;96.70;;;;;;4875712;29;20043;-75
2021/11/20 09:40:56;;;;;;;23.35;10.82;;;11.60;96.70;;;;;;4871460;29;20441;-75
2021/11/20 09:43:27;;;;;;;20.02;12.07;;;11.60;96.70;;;;;;4869455;29;20049;-75
2021/11/20 09:46:04;;;;;;;23.02;12.20;;;11.70;96.70;;;;;;4887331;29;20052;-75
2021/11/20 09:48:37;;;;;;;25.52;11.85;;;11.70;96.70;;;;;;4872606;29;20059;-75
2021/11/20 09:51:18;;;;;;;18.95;11.75;;;11.80;96.70;;;;;;4874309;29;20048;-75
2021/11/20 09:53:46;;;;;;;21.17;11.10;;;11.80;96.70;;;;;;4875635;29;20119;-75
2021/11/20 09:56:21;;;;;;;18.92;11.68;;;11.70;96.70;;;;;;4886781;29;20112;-74
2021/11/20 09:58:52;;;;;;;21.92;12.48;;;11.80;96.70;;;;;;4887943;29;20051;-75
2021/11/20 10:01:39;;;;;;;23.27;12.57;;;11.90;96.70;;;;;;4884976;29;20051;-75
2021/11/20 10:04:09;;;;;;;;;;;11.90;96.70;;;;;;4884534;29;20048;-74
2021/11/20 10:06:39;;;;;;;22.63;13.05;;;11.90;96.70;;;;;;4868916;29;19934;-75
2021/11/20 10:09:12;;;;;;;20.25;12.68;;;11.80;96.70;;;;;;4886554;29;20483;-75
2021/11/20 10:11:51;;;;;;;24.02;12.13;;;11.90;96.70;;;;;;4869376;29;20479;-75
2021/11/20 10:14:21;;;;;;;20.15;12.48;;;11.80;96.70;;;;;;4872020;29;20044;-75
2021/11/20 10:17:25;;;;;;;22.23;14.02;;;11.90;96.70;;;;;;4855388;29;20063;-75
2021/11/20 10:19:56;;;;;;;26.30;12.38;;;11.90;96.70;;;;;;4886941;29;20546;-75
2021/11/20 10:22:30;;;;;;;29.70;13.88;;;11.90;96.70;;;;;;4887898;29;20104;-75
2021/11/20 10:25:22;;;;;;;27.83;13.38;;;12.00;96.70;;;;;;4870039;29;20049;-75
2021/11/20 10:28:00;;;;;;;22.40;12.80;;;12.00;96.70;;;;;;4871668;29;20297;-75
2021/11/20 10:30:34;;;;;;;23.88;12.20;;;12.00;96.70;;;;;;4869040;29;20392;-76
2021/11/20 10:33:08;;;;;;;25.17;12.77;;;12.00;96.70;;;;;;4884684;29;20045;-76
2021/11/20 10:35:40;;;;;;;24.38;12.68;;;12.10;96.70;;;;;;4885720;29;20041;-76
2021/11/20 10:38:13;;;;;;;19.85;12.55;;;12.10;96.70;;;;;;4870809;29;20132;-76
2021/11/20 10:40:48;;;;;;;24.30;13.57;;;12.10;96.70;;;;;;4867191;29;20064;-75
2021/11/20 10:43:25;;;;;;;32.78;14.02;;;12.20;96.70;;;;;;4886366;29;20047;-76
2021/11/20 10:46:00;;;;;;;26.58;14.10;;;12.20;96.70;;;;;;4882079;29;20386;-75
2021/11/20 10:48:35;;;;;;;37.92;14.05;;;12.20;96.70;;;;;;4888002;29;20786;-76
2021/11/20 10:51:30;;;;;;;39.92;14.75;;;12.20;96.70;;;;;;4879725;29;20053;-76
2021/11/20 10:54:54;;;;;;;24.33;13.95;;;12.20;96.70;;;;;;4871684;29;20065;-75
2021/11/20 10:58:01;;;;;;;28.35;14.10;;;12.30;96.70;;;;;;4886637;29;20049;-76
2021/11/20 11:00:37;;;;;;;23.05;13.82;;;12.30;96.70;;;;;;4887550;29;20105;-76
2021/11/20 11:03:28;;;;;;;23.60;13.35;;;12.30;96.70;;;;;;4868991;29;20127;-75
2021/11/20 11:06:34;;;;;;;30.90;12.80;;;12.30;96.70;;;;;;4885947;29;20036;-75
2021/11/20 11:09:36;;;;;;;24.23;14.07;;;12.30;96.70;;;;;;4881655;29;20064;-76
2021/11/20 11:12:12;;;;;;;27.98;13.52;;;12.40;96.70;;;;;;4885149;29;20041;-75
2021/11/20 11:14:53;;;;;;;26.13;13.93;;;12.40;96.70;;;;;;4869315;29;20059;-76
2021/11/20 11:17:32;;;;;;;22.65;13.35;;;12.40;96.70;;;;;;4886465;29;20049;-75
2021/11/20 11:20:07;;;;;;;22.77;13.25;;;12.50;96.70;;;;;;4869230;29;20053;-75
2021/11/20 11:22:40;;;;;;;28.02;14.25;;;12.60;96.70;;;;;;4871467;29;20596;-75
2021/11/20 11:25:16;;;;;;;28.95;15.13;;;12.50;96.70;;;;;;4872178;29;20447;-76
2021/11/20 11:28:01;;;;;;;23.27;13.55;;;12.60;96.70;;;;;;4885759;29;20572;-75
2021/11/20 11:30:32;;;;;;;22.40;14.30;;;12.70;96.70;;;;;;4867809;29;20568;-75
2021/11/20 11:33:00;;;;;;;25.95;15.32;;;12.80;96.70;;;;;;4866896;29;20468;-76
2021/11/20 11:35:31;;;;;;;24.83;15.05;;;12.80;96.70;;;;;;4871756;29;20045;-75
2021/11/20 11:38:26;;;;;;;22.75;13.65;;;12.90;96.70;;;;;;4869141;29;20052;-75
2021/11/20 11:41:08;;;;;;;23.23;14.60;;;12.90;96.70;;;;;;4885390;29;20053;-76
2021/11/20 11:43:38;;;;;;;;;;;13.00;96.70;;;;;;4851148;29;20048;-76
2021/11/20 11:46:27;;;;;;;23.65;14.48;;;13.00;96.70;;;;;;4882535;29;19935;-75
2021/11/20 11:49:46;;;;;;;23.92;14.68;;;13.00;96.70;;;;;;4885687;29;20063;-76
2021/11/20 11:52:46;;;;;;;25.10;15.07;;;13.10;96.70;;;;;;4887724;29;20542;-76
2021/11/20 11:55:42;;;;;;;27.25;15.98;;;13.20;96.70;;;;;;4817086;29;20052;-76
2021/11/20 11:58:24;;;;;;;27.90;17.50;;;13.10;96.70;;;;;;4891878;29;20591;-76
2021/11/20 12:01:04;;;;;;;25.08;15.55;;;13.00;96.70;;;;;;4889988;29;20040;-75
2021/11/20 12:03:35;;;;;;;23.05;14.95;;;12.90;96.70;;;;;;4889854;29;20565;-75
2021/11/20 12:06:30;;;;;;;25.85;16.38;;;13.00;96.70;;;;;;4856606;29;20053;-76
2021/11/20 12:09:00;;;;;;;26.55;16.38;;;13.10;96.70;;;;;;4886246;29;20064;-76
2021/11/20 12:11:35;;;;;;;25.17;17.10;;;13.10;96.70;;;;;;4874107;29;20088;-76
2021/11/20 12:14:19;;;;;;;26.73;16.92;;;13.10;96.70;;;;;;4886043;29;20070;-76
2021/11/20 12:16:52;;;;;;;27.70;18.42;;;13.20;96.70;;;;;;4871027;29;20139;-75
2021/11/20 12:19:35;;;;;;;30.42;18.08;;;13.10;96.70;;;;;;4872656;29;20037;-75
2021/11/20 12:22:23;;;;;;;31.70;18.90;;;13.10;96.70;;;;;;4889657;29;20512;-76
2021/11/20 12:24:54;;;;;;;29.85;18.77;;;13.20;96.70;;;;;;4871475;29;20148;-76
2021/11/20 12:27:35;;;;;;;31.58;18.58;;;13.20;96.70;;;;;;4887695;29;20044;-76
2021/11/20 12:30:30;;;;;;;27.83;18.15;;;13.20;96.70;;;;;;4889472;29;20037;-75
2021/11/20 12:33:27;;;;;;;33.17;18.30;;;13.20;96.70;;;;;;4873940;29;20427;-75
2021/11/20 12:36:22;;;;;;;29.85;18.65;;;13.30;96.70;;;;;;4893085;29;20049;-75
2021/11/20 12:39:28;;;;;;;29.85;18.02;;;13.30;96.70;;;;;;4861653;29;20041;-76
2021/11/20 12:42:13;;;;;;;31.50;18.70;;;13.30;96.70;;;;;;4883230;29;20072;-76
2021/11/20 12:45:12;;;;;;;32.88;18.88;;;13.40;96.70;;;;;;4871612;29;20101;-76
2021/11/20 12:48:13;;;;;;;32.55;18.63;;;13.40;96.70;;;;;;4892491;29;20047;-76
2021/11/20 12:50:57;;;;;;;32.85;19.17;;;13.30;96.70;;;;;;4887039;29;20061;-76
2021/11/20 12:53:30;;;;;;;29.95;18.25;;;13.40;96.70;;;;;;4873155;29;20053;-76
2021/11/20 12:56:28;;;;;;;34.42;19.52;;;13.30;96.70;;;;;;4889299;29;20040;-76
2021/11/20 12:58:58;;;;;;;31.15;19.40;;;13.40;96.70;;;;;;4871860;29;20056;-74
2021/11/20 13:01:47;;;;;;;31.30;18.20;;;13.50;96.70;;;;;;4872946;29;20539;-74
2021/11/20 13:04:21;;;;;;;31.90;19.63;;;13.50;96.70;;;;;;4888378;29;20492;-76
2021/11/20 13:06:52;;;;;;;32.85;20.27;;;13.50;96.70;;;;;;4871726;29;20097;-75
2021/11/20 13:09:29;;;;;;;31.70;19.75;;;13.50;96.70;;;;;;4870670;29;20064;-75
2021/11/20 13:12:03;;;;;;;31.75;21.23;;;13.60;96.70;;;;;;4873008;29;20505;-75
2021/11/20 13:15:11;;;;;;;36.35;22.58;;;13.50;96.70;;;;;;4870149;29;20428;-75
2021/11/20 13:17:52;;;;;;;32.50;21.08;;;13.40;96.70;;;;;;4865635;29;20288;-76
2021/11/20 13:20:23;;;;;;;36.28;22.35;;;13.40;96.70;;;;;;4891994;29;20048;-75
2021/11/20 13:23:07;;;;;;;35.20;24.02;;;13.50;96.70;;;;;;4869811;29;20052;-75
2021/11/20 13:25:49;;;;;;;32.80;21.27;;;13.50;96.70;;;;;;4873569;29;20053;-75